Time;durP1;ratioP1;P1;durP2;ratioP2;P2;SDS_P1;SDS_P2;PMS_P1;PMS_P2;Temp;Humidity;BMP_temperature;BMP_pressure;BME280_temperature;BME280_humidity;BME280_pressure;Samples;Min_cycle;Max_cycle;Signal;HPM_P1;HPM_P2
2023/07/19 00:02:37;;;;;;;4.70;2.60;;;17.10;99.90;;;;;;2586921;54;21092;31
2023/07/19 00:05:13;;;;;;;3.00;2.30;;;17.10;99.90;;;;;;2586834;54;20029;31
2023/07/19 00:07:48;;;;;;;4.20;2.45;;;17.00;99.90;;;;;;2585771;54;20982;31
2023/07/19 00:10:24;;;;;;;4.50;2.50;;;17.00;99.90;;;;;;2605076;46;20057;31
2023/07/19 00:12:57;;;;;;;5.00;2.40;;;16.90;99.90;;;;;;2586429;54;20915;31
2023/07/19 00:15:33;;;;;;;4.10;2.30;;;16.80;99.90;;;;;;2586495;54;20928;31
2023/07/19 00:18:12;;;;;;;4.47;2.40;;;16.80;99.90;;;;;;2605155;46;21502;31
2023/07/19 00:20:45;;;;;;;3.60;2.42;;;16.80;99.90;;;;;;2586573;54;19942;31
2023/07/19 00:23:19;;;;;;;5.03;2.50;;;16.70;99.90;;;;;;2598971;46;20137;31
2023/07/19 00:25:54;;;;;;;6.85;2.75;;;16.70;99.90;;;;;;2683446;39;20467;31
2023/07/19 00:28:30;;;;;;;3.50;2.13;;;16.70;99.90;;;;;;2587228;46;20752;31
2023/07/19 00:31:04;;;;;;;4.50;2.40;;;16.70;99.90;;;;;;2586643;54;21006;31
2023/07/19 00:33:42;;;;;;;5.85;2.55;;;16.60;99.90;;;;;;2604805;46;20070;31
2023/07/19 00:36:15;;;;;;;2.80;1.92;;;16.60;99.90;;;;;;2605125;46;21001;31
2023/07/19 00:38:50;;;;;;;2.40;1.45;;;16.50;99.90;;;;;;2586385;54;20977;31
2023/07/19 00:41:25;;;;;;;3.00;1.75;;;16.50;99.90;;;;;;2586701;54;20789;31
2023/07/19 00:44:00;;;;;;;4.70;2.40;;;16.50;99.90;;;;;;2586689;54;20032;31
2023/07/19 00:46:34;;;;;;;3.58;2.25;;;16.50;99.90;;;;;;2604938;46;20942;31
2023/07/19 00:49:11;;;;;;;5.10;2.30;;;16.50;99.90;;;;;;2585775;54;20027;31
2023/07/19 00:51:46;;;;;;;3.35;1.95;;;16.40;99.90;;;;;;2586422;54;20778;31
2023/07/19 00:54:21;;;;;;;4.65;2.55;;;16.40;99.90;;;;;;2586508;54;20042;31
2023/07/19 00:56:56;;;;;;;3.97;2.10;;;16.40;99.90;;;;;;2586523;54;20087;31
2023/07/19 00:59:31;;;;;;;2.72;2.15;;;16.40;99.90;;;;;;2586469;54;20910;31
2023/07/19 01:02:07;;;;;;;5.93;3.08;;;16.30;99.90;;;;;;2586636;54;20038;31
2023/07/19 01:04:45;;;;;;;4.85;2.42;;;16.30;99.90;;;;;;2586509;54;20911;31
2023/07/19 01:07:22;;;;;;;7.40;2.40;;;16.20;99.90;;;;;;2586671;54;20914;31
2023/07/19 01:09:57;;;;;;;5.33;2.57;;;16.30;99.90;;;;;;2605015;46;20027;31
2023/07/19 01:12:31;;;;;;;4.70;2.00;;;16.20;99.90;;;;;;2586694;54;20085;31
2023/07/19 01:15:10;;;;;;;4.55;2.30;;;16.30;99.90;;;;;;2585770;54;20962;31
2023/07/19 01:17:42;;;;;;;6.43;2.60;;;16.30;99.90;;;;;;2586734;54;20113;31
2023/07/19 01:20:23;;;;;;;4.30;2.63;;;16.20;99.90;;;;;;2586709;54;20022;31
2023/07/19 01:23:02;;;;;;;3.40;2.27;;;16.20;99.90;;;;;;2586573;54;20731;31
2023/07/19 01:25:36;;;;;;;5.47;2.95;;;16.20;99.90;;;;;;2604771;46;20253;31
2023/07/19 01:28:15;;;;;;;3.53;2.00;;;16.20;99.90;;;;;;2586360;54;20026;31
2023/07/19 01:30:51;;;;;;;6.23;2.87;;;16.10;99.90;;;;;;2586589;54;21632;31
2023/07/19 01:33:23;;;;;;;6.40;3.00;;;16.10;99.90;;;;;;2586029;54;20887;31
2023/07/19 01:36:05;;;;;;;5.05;2.70;;;16.00;99.90;;;;;;2586343;54;20882;31
2023/07/19 01:38:43;;;;;;;3.97;2.17;;;15.90;99.90;;;;;;2585524;54;20140;31
2023/07/19 01:41:18;;;;;;;6.07;2.13;;;15.90;99.90;;;;;;2684324;39;21580;31
2023/07/19 01:43:53;;;;;;;5.45;2.40;;;15.90;99.90;;;;;;2586333;54;20090;31
2023/07/19 01:46:28;;;;;;;4.53;2.38;;;15.90;99.90;;;;;;2586506;54;20863;31
2023/07/19 01:49:06;;;;;;;3.85;2.35;;;15.80;99.90;;;;;;2586539;54;20957;31
2023/07/19 01:51:42;;;;;;;5.13;2.40;;;15.80;99.90;;;;;;2604712;46;20865;31
2023/07/19 01:54:20;;;;;;;3.03;1.90;;;15.70;99.90;;;;;;2586515;54;21090;31
2023/07/19 01:56:54;;;;;;;4.07;2.40;;;15.70;99.90;;;;;;2586287;54;20903;31
2023/07/19 01:59:35;;;;;;;5.00;2.20;;;15.70;99.90;;;;;;2604892;46;20026;31
2023/07/19 02:02:10;;;;;;;5.40;2.37;;;15.60;99.90;;;;;;2586162;54;20098;31
2023/07/19 02:07:16;;;;;;;3.50;2.22;;;15.50;99.90;;;;;;2586610;54;20953;31
2023/07/19 02:09:53;;;;;;;4.82;2.35;;;15.50;99.90;;;;;;2684309;39;21692;31
2023/07/19 02:12:27;;;;;;;7.43;2.65;;;15.50;99.90;;;;;;2604547;46;20026;31
2023/07/19 02:15:03;;;;;;;4.13;2.40;;;15.40;99.90;;;;;;2586594;54;20791;31
2023/07/19 02:17:41;;;;;;;4.65;2.15;;;15.40;99.90;;;;;;2586357;54;20855;31
2023/07/19 02:20:19;;;;;;;4.35;2.33;;;15.40;99.90;;;;;;2586290;54;20045;31
2023/07/19 02:22:54;;;;;;;5.85;2.70;;;15.30;99.90;;;;;;2586337;54;20963;31
2023/07/19 02:25:31;;;;;;;6.65;2.50;;;15.30;99.90;;;;;;2586193;54;20060;31
2023/07/19 02:28:08;;;;;;;4.05;2.60;;;15.30;99.90;;;;;;2586515;54;20188;31
2023/07/19 02:30:45;;;;;;;4.55;2.75;;;15.30;99.90;;;;;;2586181;54;20968;31
2023/07/19 02:33:21;;;;;;;5.13;2.50;;;15.30;99.90;;;;;;2586235;54;20840;31
2023/07/19 02:35:58;;;;;;;4.07;2.60;;;15.30;99.90;;;;;;2604565;46;20242;31
2023/07/19 02:38:33;;;;;;;5.60;2.90;;;15.20;99.90;;;;;;2586339;54;20029;31
2023/07/19 02:41:11;;;;;;;7.15;2.75;;;15.30;99.90;;;;;;2586199;54;20787;31
2023/07/19 02:43:49;;;;;;;5.80;3.00;;;15.20;99.90;;;;;;2586115;54;20038;31
2023/07/19 02:46:24;;;;;;;4.72;2.75;;;15.10;99.90;;;;;;2586032;54;21319;31
2023/07/19 02:48:58;;;;;;;8.80;2.85;;;15.10;99.90;;;;;;2585297;54;20030;31
2023/07/19 02:51:37;;;;;;;6.63;2.27;;;15.10;99.90;;;;;;2585891;54;20034;31
2023/07/19 02:54:12;;;;;;;5.38;2.97;;;15.00;99.90;;;;;;2604301;46;20026;31
2023/07/19 02:56:49;;;;;;;6.47;2.25;;;15.00;99.90;;;;;;2697372;39;20418;31
2023/07/19 02:59:25;;;;;;;4.43;2.58;;;15.00;99.90;;;;;;2586158;54;20081;31
2023/07/19 03:01:58;;;;;;;;;;;15.00;99.90;;;;;;2586655;54;20109;31
2023/07/19 03:04:35;;;;;;;5.93;2.95;;;15.00;99.90;;;;;;2702776;39;20424;31
2023/07/19 03:07:10;;;;;;;3.70;2.30;;;15.00;99.90;;;;;;2587004;54;20030;31
2023/07/19 03:09:46;;;;;;;6.60;2.07;;;14.90;99.90;;;;;;2587032;54;20842;31
2023/07/19 03:12:24;;;;;;;5.03;2.50;;;15.00;99.90;;;;;;2586995;54;21087;31
2023/07/19 03:15:00;;;;;;;3.13;2.17;;;15.00;99.90;;;;;;2586658;54;20042;31
2023/07/19 03:17:34;;;;;;;5.87;3.13;;;15.00;99.90;;;;;;2586753;54;20735;31
2023/07/19 03:20:10;;;;;;;3.78;2.63;;;14.90;99.90;;;;;;2586542;54;20033;31
2023/07/19 03:22:44;;;;;;;4.60;2.20;;;14.90;99.90;;;;;;2605358;46;20184;31
2023/07/19 03:25:16;;;;;;;6.20;3.00;;;14.90;99.90;;;;;;2586629;54;20721;31
2023/07/19 03:27:54;;;;;;;5.20;2.53;;;14.90;99.90;;;;;;2586915;54;20827;31
2023/07/19 03:30:30;;;;;;;3.67;2.70;;;14.90;99.90;;;;;;2586748;54;20031;31
2023/07/19 03:33:07;;;;;;;4.95;2.50;;;14.90;99.90;;;;;;2586871;54;20026;31
2023/07/19 03:35:42;;;;;;;4.95;2.30;;;15.00;99.90;;;;;;2586899;54;20882;31
2023/07/19 03:38:16;;;;;;;3.67;2.15;;;14.90;99.90;;;;;;2586020;54;20035;31
2023/07/19 03:40:51;;;;;;;7.50;2.10;;;15.00;99.90;;;;;;2605103;46;20907;31
2023/07/19 03:43:28;;;;;;;5.33;2.40;;;15.00;99.90;;;;;;2684647;39;20441;31
2023/07/19 03:46:04;;;;;;;3.30;2.40;;;15.00;99.90;;;;;;2586725;54;20056;31
2023/07/19 03:48:40;;;;;;;4.88;2.55;;;15.00;99.90;;;;;;2586721;54;20053;31
2023/07/19 03:51:15;;;;;;;7.45;2.70;;;15.00;99.90;;;;;;2586501;54;20041;31
2023/07/19 03:53:54;;;;;;;6.50;2.15;;;15.10;99.90;;;;;;2586764;54;20030;31
2023/07/19 03:56:30;;;;;;;6.80;3.17;;;15.20;99.90;;;;;;2604957;46;20031;31
2023/07/19 03:59:08;;;;;;;3.60;2.93;;;15.30;99.90;;;;;;2586819;54;20875;31
2023/07/19 04:01:43;;;;;;;8.68;2.80;;;15.40;99.90;;;;;;2586880;54;20743;31
2023/07/19 04:04:16;;;;;;;4.83;2.60;;;15.50;99.90;;;;;;2586419;54;20151;31
2023/07/19 04:06:50;;;;;;;6.40;4.03;;;15.70;99.90;;;;;;2586710;54;20756;31
2023/07/19 04:09:25;;;;;;;4.00;2.08;;;15.90;99.90;;;;;;2586746;54;20033;31
2023/07/19 04:12:00;;;;;;;6.83;2.90;;;16.10;99.90;;;;;;2586746;54;20854;31
2023/07/19 04:14:36;;;;;;;6.45;2.35;;;16.20;99.90;;;;;;2586681;54;20770;31
2023/07/19 04:17:09;;;;;;;;;;;16.30;99.90;;;;;;2587123;54;20031;31
2023/07/19 04:19:44;;;;;;;4.07;2.28;;;16.50;99.90;;;;;;2586793;54;20759;31
2023/07/19 04:22:19;;;;;;;6.18;2.83;;;16.60;99.90;;;;;;2586582;54;20026;31
2023/07/19 04:24:54;;;;;;;17.03;4.30;;;16.80;99.90;;;;;;2586713;54;21619;31
2023/07/19 04:27:28;;;;;;;9.77;2.67;;;17.00;99.90;;;;;;2604961;46;20895;31
2023/07/19 04:30:08;;;;;;;5.47;2.38;;;17.20;99.90;;;;;;2605425;46;20893;31
2023/07/19 04:32:44;;;;;;;4.32;3.03;;;17.40;99.90;;;;;;2586620;54;20101;31
2023/07/19 04:35:21;;;;;;;3.63;2.40;;;17.50;99.90;;;;;;2586393;54;20032;31
2023/07/19 04:37:55;;;;;;;3.40;2.13;;;17.80;99.90;;;;;;2586721;54;20912;31
2023/07/19 04:40:30;;;;;;;4.25;2.83;;;17.90;99.90;;;;;;2605003;46;20057;31
2023/07/19 04:43:06;;;;;;;4.65;3.05;;;18.00;99.90;;;;;;2586477;54;20137;31
2023/07/19 04:45:43;;;;;;;6.55;2.20;;;18.20;99.90;;;;;;2586592;54;20744;31
2023/07/19 04:48:18;;;;;;;6.70;2.22;;;18.50;99.90;;;;;;2585615;54;21718;31
2023/07/19 04:50:55;;;;;;;7.07;2.40;;;18.70;99.90;;;;;;2586709;54;20042;31
2023/07/19 04:53:31;;;;;;;6.10;2.70;;;18.90;99.90;;;;;;2586672;54;20775;31
2023/07/19 04:56:08;;;;;;;6.03;2.53;;;19.20;99.90;;;;;;2586596;54;20735;31
2023/07/19 04:58:42;;;;;;;3.10;2.10;;;19.40;99.90;;;;;;2683334;39;20511;31
2023/07/19 05:01:22;;;;;;;4.45;1.90;;;19.70;99.90;;;;;;2605084;46;20051;31
2023/07/19 05:03:59;;;;;;;4.40;2.20;;;19.80;99.90;;;;;;2774054;31;21609;31
2023/07/19 05:06:35;;;;;;;3.72;2.53;;;20.00;99.90;;;;;;2586405;54;20338;31
2023/07/19 05:09:09;;;;;;;4.00;2.60;;;20.10;99.90;;;;;;2586417;54;20053;31
2023/07/19 05:11:44;;;;;;;6.95;2.55;;;20.10;99.90;;;;;;2586595;54;20803;31
2023/07/19 05:14:20;;;;;;;4.88;2.10;;;20.20;99.90;;;;;;2586393;54;20050;31
2023/07/19 05:16:56;;;;;;;5.47;1.95;;;20.30;99.90;;;;;;2585744;54;20030;31
2023/07/19 05:19:32;;;;;;;6.35;2.55;;;20.40;99.90;;;;;;2586352;54;20732;31
2023/07/19 05:22:06;;;;;;;3.75;2.05;;;20.30;99.90;;;;;;2586575;54;20835;31
2023/07/19 05:24:40;;;;;;;4.03;2.83;;;20.30;99.90;;;;;;2604997;46;20038;31
2023/07/19 05:27:21;;;;;;;6.82;2.42;;;20.20;99.90;;;;;;2586190;54;20763;31
2023/07/19 05:29:57;;;;;;;7.93;2.20;;;20.30;99.90;;;;;;2586653;54;20911;31
2023/07/19 05:32:33;;;;;;;;;;;20.30;99.90;;;;;;2586804;54;20026;31
2023/07/19 05:35:08;;;;;;;6.30;2.05;;;20.20;99.90;;;;;;2604601;46;19942;31
2023/07/19 05:37:43;;;;;;;8.85;2.33;;;20.40;99.90;;;;;;2586450;54;20057;31
2023/07/19 05:40:18;;;;;;;8.77;2.10;;;20.50;99.90;;;;;;2586365;54;20931;31
2023/07/19 05:42:55;;;;;;;9.82;2.42;;;20.40;99.90;;;;;;2585422;54;22007;31
2023/07/19 05:45:31;;;;;;;8.97;2.30;;;20.60;99.90;;;;;;2586325;54;20105;31
2023/07/19 05:48:09;;;;;;;7.70;2.22;;;20.80;99.90;;;;;;2684311;39;21584;31
2023/07/19 05:50:52;;;;;;;8.63;2.30;;;21.20;99.90;;;;;;2604444;46;20033;31
2023/07/19 05:53:27;;;;;;;10.20;2.65;;;21.60;99.90;;;;;;2586424;54;20082;31
2023/07/19 05:55:59;;;;;;;6.63;2.57;;;21.90;99.90;;;;;;2585914;54;20663;31
2023/07/19 05:58:33;;;;;;;6.28;2.88;;;22.10;99.90;;;;;;2604956;46;21239;31
2023/07/19 06:01:14;;;;;;;6.93;2.53;;;22.50;99.90;;;;;;2586366;54;20026;31
2023/07/19 06:03:54;;;;;;;8.07;2.35;;;22.80;99.90;;;;;;2586567;54;20948;31
2023/07/19 06:06:29;;;;;;;7.53;3.05;;;23.20;99.90;;;;;;2586300;54;20029;31
2023/07/19 06:09:05;;;;;;;8.23;2.30;;;23.50;99.90;;;;;;2586082;54;20886;31
2023/07/19 06:11:44;;;;;;;9.40;2.15;;;23.70;99.90;;;;;;2604420;46;20827;31
2023/07/19 06:14:19;;;;;;;9.60;1.98;;;23.90;99.90;;;;;;2684154;39;21584;31
2023/07/19 06:16:56;;;;;;;7.95;2.55;;;24.10;99.90;;;;;;2600920;46;21369;31
2023/07/19 06:19:35;;;;;;;7.45;2.25;;;24.40;99.90;;;;;;2586320;54;20876;31
2023/07/19 06:22:13;;;;;;;8.52;2.58;;;24.60;99.90;;;;;;2585321;54;20647;31
2023/07/19 06:24:48;;;;;;;7.82;2.20;;;24.90;99.90;;;;;;2599491;46;20031;31
2023/07/19 06:27:24;;;;;;;6.03;2.30;;;25.10;99.90;;;;;;2604594;46;20883;31
2023/07/19 06:30:02;;;;;;;6.60;2.05;;;25.40;99.90;;;;;;2586144;54;20029;31
2023/07/19 06:32:38;;;;;;;7.05;1.90;;;25.60;99.90;;;;;;2585961;54;20027;31
2023/07/19 06:35:20;;;;;;;75.67;7.57;;;25.70;99.90;;;;;;2586232;54;20882;31
2023/07/19 06:37:59;;;;;;;7.00;2.40;;;25.90;99.90;;;;;;2603902;47;20038;31
2023/07/19 06:40:35;;;;;;;6.90;1.80;;;26.00;99.90;;;;;;2604548;46;20038;31
2023/07/19 06:43:11;;;;;;;5.70;1.70;;;26.10;99.90;;;;;;2586225;54;20914;31
2023/07/19 06:45:49;;;;;;;4.53;1.97;;;26.40;99.90;;;;;;2683833;39;21954;31
2023/07/19 06:48:23;;;;;;;4.37;1.83;;;26.50;99.90;;;;;;2586098;54;20301;31
2023/07/19 06:51:02;;;;;;;8.35;2.75;;;26.70;99.90;;;;;;2586018;54;20074;31
2023/07/19 06:53:38;;;;;;;3.47;1.67;;;26.90;99.40;;;;;;2585936;54;20054;31
2023/07/19 06:56:17;;;;;;;4.45;1.75;;;27.00;98.00;;;;;;2604403;46;20030;31
2023/07/19 06:58:54;;;;;;;4.20;1.30;;;27.30;96.80;;;;;;2586508;54;20029;31
2023/07/19 07:01:29;;;;;;;5.13;1.60;;;27.60;96.50;;;;;;2586365;54;20768;31
2023/07/19 07:04:06;;;;;;;2.67;1.40;;;27.80;95.20;;;;;;2702176;39;21586;31
2023/07/19 07:06:46;;;;;;;7.25;1.70;;;27.90;94.70;;;;;;2604830;47;21112;31
2023/07/19 07:09:28;;;;;;;4.20;1.85;;;28.00;93.90;;;;;;2586298;54;20105;31
2023/07/19 07:12:03;;;;;;;5.53;1.80;;;28.20;95.00;;;;;;2773107;31;21745;31
2023/07/19 07:14:39;;;;;;;;;;;28.30;92.70;;;;;;2684569;39;21580;31
2023/07/19 07:17:12;;;;;;;6.13;1.95;;;28.60;94.30;;;;;;2585887;54;19949;31
2023/07/19 07:19:53;;;;;;;9.43;1.77;;;28.50;92.80;;;;;;2586251;54;20022;31
2023/07/19 07:22:32;;;;;;;6.63;1.63;;;28.60;92.10;;;;;;2586029;54;20027;31
2023/07/19 07:25:10;;;;;;;6.00;2.20;;;28.80;92.00;;;;;;2585262;54;20968;31
2023/07/19 07:27:48;;;;;;;5.57;1.88;;;29.00;90.80;;;;;;2585390;54;19941;31
2023/07/19 07:30:23;;;;;;;3.60;1.60;;;29.10;90.40;;;;;;2683779;39;20519;31
2023/07/19 07:32:59;;;;;;;4.40;1.77;;;29.20;90.90;;;;;;2604831;47;20740;31
2023/07/19 07:35:37;;;;;;;7.65;1.85;;;29.40;88.90;;;;;;2586069;54;20030;31
2023/07/19 07:38:20;;;;;;;4.55;1.80;;;29.60;89.00;;;;;;2683836;39;20462;31
2023/07/19 07:41:01;;;;;;;2.28;1.33;;;29.70;89.20;;;;;;2604652;47;20034;31
2023/07/19 07:43:37;;;;;;;7.45;1.83;;;29.80;87.60;;;;;;2604826;47;20842;31
2023/07/19 07:46:11;;;;;;;4.97;1.70;;;30.00;85.80;;;;;;2586055;54;20026;31
2023/07/19 07:48:59;;;;;;;5.05;1.90;;;30.10;84.70;;;;;;2585786;54;20034;31
2023/07/19 07:51:35;;;;;;;5.70;1.80;;;30.30;83.20;;;;;;2586889;54;20105;31
2023/07/19 07:54:14;;;;;;;;;;;30.40;86.00;;;;;;2586367;54;20100;31
2023/07/19 07:56:54;;;;;;;9.60;2.30;;;30.40;86.80;;;;;;2605253;46;20831;31
2023/07/19 07:59:31;;;;;;;5.15;2.03;;;30.50;85.40;;;;;;2587011;54;21278;31
2023/07/19 08:02:07;;;;;;;7.80;2.47;;;30.60;81.60;;;;;;2586888;54;20026;31
2023/07/19 08:04:40;;;;;;;6.50;2.03;;;30.70;82.50;;;;;;2604928;46;20054;31
2023/07/19 08:07:18;;;;;;;4.80;1.75;;;30.80;82.40;;;;;;2586316;54;20235;31
2023/07/19 08:09:57;;;;;;;3.80;1.40;;;30.80;83.50;;;;;;2586738;54;20033;31
2023/07/19 08:12:33;;;;;;;3.30;2.00;;;30.90;80.20;;;;;;2604890;46;20062;31
2023/07/19 08:15:07;;;;;;;4.45;2.00;;;31.00;83.00;;;;;;2597490;46;20913;31
2023/07/19 08:17:45;;;;;;;8.00;1.97;;;31.00;81.00;;;;;;2586685;54;20042;31
2023/07/19 08:20:21;;;;;;;4.83;1.70;;;31.10;82.50;;;;;;2586944;54;20027;31
2023/07/19 08:22:58;;;;;;;4.05;1.85;;;31.30;83.00;;;;;;2586847;54;20840;31
2023/07/19 08:25:40;;;;;;;3.08;1.65;;;31.60;81.80;;;;;;2591120;46;20782;31
2023/07/19 08:28:16;;;;;;;2.90;1.58;;;31.70;81.80;;;;;;2585747;54;20640;31
2023/07/19 08:30:52;;;;;;;2.97;1.50;;;31.80;78.20;;;;;;2585908;54;20030;31
2023/07/19 08:33:30;;;;;;;5.53;1.73;;;31.80;77.70;;;;;;2605097;46;20806;31
2023/07/19 08:36:09;;;;;;;5.28;1.65;;;31.80;77.60;;;;;;2586675;54;20101;31
2023/07/19 08:38:45;;;;;;;5.30;1.63;;;31.90;78.80;;;;;;2586353;54;20031;31
2023/07/19 08:41:24;;;;;;;5.63;1.77;;;32.00;79.50;;;;;;2604740;46;20031;31
2023/07/19 08:44:02;;;;;;;4.60;1.90;;;32.10;77.10;;;;;;2586400;54;20026;31
2023/07/19 08:46:36;;;;;;;6.53;1.60;;;32.20;78.20;;;;;;2586291;54;20780;31
2023/07/19 08:49:12;;;;;;;4.93;1.70;;;32.50;77.00;;;;;;2586560;54;20234;31
2023/07/19 08:51:49;;;;;;;5.18;1.77;;;32.40;74.00;;;;;;2586685;54;20059;31
2023/07/19 08:54:24;;;;;;;4.25;2.00;;;32.50;73.50;;;;;;2586563;54;21690;31
2023/07/19 08:57:07;;;;;;;4.80;2.03;;;32.50;73.10;;;;;;2586825;54;20034;31
2023/07/19 08:59:42;;;;;;;5.35;1.52;;;32.70;74.70;;;;;;2604586;46;20030;31
2023/07/19 09:02:18;;;;;;;2.30;1.80;;;32.70;73.60;;;;;;2586524;54;21454;31
2023/07/19 09:05:12;;;;;;;5.75;1.80;;;32.80;72.20;;;;;;2586283;54;20954;31
2023/07/19 09:07:51;;;;;;;3.88;1.60;;;32.90;73.60;;;;;;2586862;54;20885;31
2023/07/19 09:10:28;;;;;;;3.45;1.60;;;32.90;72.80;;;;;;2605002;46;20913;31
2023/07/19 09:13:07;;;;;;;5.53;2.10;;;32.90;71.50;;;;;;2586757;54;20030;31
2023/07/19 09:15:44;;;;;;;4.60;1.95;;;33.00;72.50;;;;;;2586470;54;20030;31
2023/07/19 09:18:18;;;;;;;4.80;1.80;;;33.10;70.90;;;;;;2585661;54;20059;31
2023/07/19 09:20:59;;;;;;;5.40;1.90;;;33.10;71.80;;;;;;2586709;54;20027;31
2023/07/19 09:23:38;;;;;;;3.85;2.00;;;33.20;70.40;;;;;;2586572;54;20022;31
2023/07/19 09:26:16;;;;;;;2.57;1.97;;;33.30;70.10;;;;;;2586508;54;20093;31
2023/07/19 09:28:56;;;;;;;5.80;2.13;;;33.20;69.30;;;;;;2605095;46;20085;31
2023/07/19 09:31:35;;;;;;;4.05;1.80;;;33.10;69.80;;;;;;2679562;39;20530;31
2023/07/19 09:34:08;;;;;;;4.00;1.95;;;33.10;68.70;;;;;;2604999;46;20038;31
2023/07/19 09:36:42;;;;;;;3.83;2.30;;;33.10;69.70;;;;;;2586086;54;20053;31
2023/07/19 09:39:18;;;;;;;5.07;2.20;;;33.20;70.10;;;;;;2586401;54;20138;31
2023/07/19 09:41:57;;;;;;;4.90;2.13;;;33.10;71.50;;;;;;2586391;54;20263;31
2023/07/19 09:44:39;;;;;;;3.53;1.95;;;33.10;69.40;;;;;;2604760;46;20030;31
2023/07/19 09:47:17;;;;;;;3.85;1.75;;;33.20;69.60;;;;;;2605207;46;20747;31
2023/07/19 09:50:06;;;;;;;5.47;1.88;;;33.20;70.30;;;;;;2604527;46;20062;31
2023/07/19 09:52:45;;;;;;;6.65;1.70;;;33.20;68.40;;;;;;2592063;46;20919;31
2023/07/19 09:55:21;;;;;;;4.35;2.20;;;33.20;69.00;;;;;;2592578;46;20057;31
2023/07/19 09:57:59;;;;;;;5.57;2.20;;;33.50;69.30;;;;;;2586343;54;20086;31
2023/07/19 10:00:38;;;;;;;14.77;1.90;;;33.60;68.80;;;;;;2585470;54;20965;31
2023/07/19 10:03:20;;;;;;;7.50;2.20;;;33.70;68.00;;;;;;2592019;46;20142;31
2023/07/19 10:06:02;;;;;;;8.15;2.15;;;33.80;67.40;;;;;;2586432;54;20026;31
2023/07/19 10:08:39;;;;;;;6.47;2.03;;;33.70;66.90;;;;;;2684501;39;21571;31
2023/07/19 10:11:20;;;;;;;6.20;1.90;;;33.70;67.70;;;;;;2586661;54;21916;31
2023/07/19 10:14:01;;;;;;;3.35;1.50;;;33.70;66.50;;;;;;2586166;54;20859;31
2023/07/19 10:16:48;;;;;;;5.47;1.50;;;33.60;66.40;;;;;;2755182;31;21832;31
2023/07/19 10:19:30;;;;;;;5.18;1.83;;;33.60;65.90;;;;;;2586411;54;20031;31
2023/07/19 10:22:06;;;;;;;6.00;2.00;;;33.40;66.90;;;;;;2604803;46;20893;31
2023/07/19 10:24:42;;;;;;;2.65;1.85;;;33.30;65.70;;;;;;2586013;54;21010;31
2023/07/19 10:27:37;;;;;;;3.43;2.10;;;33.30;66.80;;;;;;2604627;46;20116;31
2023/07/19 10:30:17;;;;;;;2.08;1.45;;;33.20;66.70;;;;;;2605037;46;21207;31
2023/07/19 10:32:59;;;;;;;5.55;2.00;;;33.30;66.60;;;;;;2585577;54;20773;31
2023/07/19 10:35:42;;;;;;;3.33;2.15;;;33.20;68.80;;;;;;2586337;54;20061;31
2023/07/19 10:38:18;;;;;;;4.57;1.77;;;33.40;66.30;;;;;;2586034;54;20902;31
2023/07/19 10:40:56;;;;;;;7.25;1.80;;;33.30;66.60;;;;;;2600822;46;20894;31
2023/07/19 10:43:36;;;;;;;4.10;1.98;;;33.30;68.60;;;;;;2604522;46;20070;31
2023/07/19 10:46:14;;;;;;;5.43;1.90;;;33.10;68.10;;;;;;2586160;54;19934;31
2023/07/19 10:48:49;;;;;;;;;;;33.20;68.70;;;;;;2703148;39;21569;31
2023/07/19 10:51:28;;;;;;;10.70;2.60;;;33.20;67.20;;;;;;2585424;54;19938;31
2023/07/19 10:54:03;;;;;;;4.65;1.70;;;33.20;67.50;;;;;;2586232;54;20840;31
2023/07/19 10:56:40;;;;;;;3.60;1.93;;;33.10;68.10;;;;;;2604697;46;20892;31
2023/07/19 10:59:16;;;;;;;5.40;2.10;;;32.90;67.80;;;;;;2604663;46;20058;31
2023/07/19 11:01:56;;;;;;;3.37;1.73;;;32.80;67.80;;;;;;2586325;54;20888;31
2023/07/19 11:04:34;;;;;;;4.20;1.70;;;32.70;65.90;;;;;;2586020;54;20022;31
2023/07/19 11:07:11;;;;;;;2.97;1.70;;;32.60;68.40;;;;;;2586306;54;20245;31
2023/07/19 11:09:52;;;;;;;2.70;1.80;;;32.60;66.60;;;;;;2586313;54;20849;31
2023/07/19 11:12:30;;;;;;;2.90;1.35;;;32.70;65.80;;;;;;2586061;54;20026;31
2023/07/19 11:15:05;;;;;;;3.95;1.45;;;32.80;70.30;;;;;;2585341;54;19942;31
2023/07/19 11:17:43;;;;;;;2.50;1.60;;;32.80;66.90;;;;;;2586139;54;20037;31
2023/07/19 11:20:31;;;;;;;3.67;2.00;;;32.80;67.60;;;;;;2683988;39;20536;31
2023/07/19 11:23:14;;;;;;;4.53;1.93;;;32.90;67.70;;;;;;2586505;54;20022;31
2023/07/19 11:25:50;;;;;;;4.95;1.80;;;33.00;66.70;;;;;;2586849;54;20908;31
2023/07/19 11:28:39;;;;;;;4.85;1.83;;;33.20;66.20;;;;;;2586805;54;20033;31
2023/07/19 11:31:34;;;;;;;6.30;1.95;;;33.20;67.60;;;;;;2702932;39;20535;31
2023/07/19 11:34:12;;;;;;;5.30;2.15;;;33.30;67.20;;;;;;2605335;46;20923;31
2023/07/19 11:36:51;;;;;;;5.55;2.10;;;33.40;68.10;;;;;;2586961;54;20918;31
2023/07/19 11:39:32;;;;;;;3.55;1.80;;;33.20;65.20;;;;;;2754601;31;21635;31
2023/07/19 11:42:12;;;;;;;4.53;1.92;;;33.10;64.40;;;;;;2683677;39;21704;31
2023/07/19 11:44:48;;;;;;;6.68;1.58;;;32.90;66.30;;;;;;2586916;54;20074;31
2023/07/19 11:47:25;;;;;;;3.63;1.83;;;33.00;67.70;;;;;;2605318;46;20769;31
2023/07/19 11:50:03;;;;;;;4.45;1.60;;;33.00;64.40;;;;;;2586808;54;20817;31
2023/07/19 11:52:51;;;;;;;4.38;1.70;;;32.60;65.50;;;;;;2586152;54;20057;31
2023/07/19 11:55:31;;;;;;;2.95;1.73;;;32.40;65.20;;;;;;2586893;54;20026;31
2023/07/19 11:58:07;;;;;;;3.25;1.35;;;32.20;66.80;;;;;;2586865;54;20945;31
2023/07/19 12:00:41;;;;;;;3.30;2.00;;;32.30;64.90;;;;;;2604765;46;20101;31
2023/07/19 12:03:20;;;;;;;2.42;1.35;;;32.30;66.10;;;;;;2586830;54;20691;31
2023/07/19 12:05:58;;;;;;;5.30;1.70;;;32.40;65.40;;;;;;2586628;54;20865;31
2023/07/19 12:08:35;;;;;;;2.95;1.45;;;32.30;64.60;;;;;;2605382;46;20767;31
2023/07/19 12:11:12;;;;;;;2.80;1.50;;;32.10;65.60;;;;;;2586037;54;20023;31
2023/07/19 12:13:47;;;;;;;4.80;1.50;;;32.60;65.00;;;;;;2683649;39;20442;31
2023/07/19 12:16:24;;;;;;;3.20;1.33;;;32.00;63.70;;;;;;2586860;54;20883;31
2023/07/19 12:19:00;;;;;;;2.50;1.55;;;31.90;64.80;;;;;;2702169;39;21433;31
2023/07/19 12:21:37;;;;;;;3.40;1.90;;;31.80;65.40;;;;;;2702909;39;21476;31
2023/07/19 12:24:12;;;;;;;2.53;1.95;;;31.70;65.70;;;;;;2586894;54;20790;31
2023/07/19 12:26:50;;;;;;;4.93;1.90;;;31.70;64.50;;;;;;2586670;54;20029;31
2023/07/19 12:29:26;;;;;;;2.95;1.55;;;31.70;64.60;;;;;;2605100;46;20249;31
2023/07/19 12:32:05;;;;;;;4.28;1.40;;;31.70;65.00;;;;;;2586480;54;20029;31
2023/07/19 12:34:40;;;;;;;2.75;1.58;;;31.70;64.70;;;;;;2604513;46;20022;31
2023/07/19 12:37:15;;;;;;;6.22;1.92;;;31.60;63.90;;;;;;2586742;54;20810;31
2023/07/19 12:39:52;;;;;;;3.20;1.60;;;31.60;66.00;;;;;;2586608;54;20033;31
2023/07/19 12:42:33;;;;;;;4.03;1.75;;;31.60;64.10;;;;;;2604920;46;19970;31
2023/07/19 12:45:13;;;;;;;3.95;1.80;;;31.50;65.30;;;;;;2586879;54;20743;31
2023/07/19 12:47:50;;;;;;;5.15;1.75;;;31.60;65.40;;;;;;2586389;54;20774;31
2023/07/19 12:50:28;;;;;;;3.80;1.58;;;31.60;65.60;;;;;;2586113;54;20914;31
2023/07/19 12:53:04;;;;;;;1.85;1.52;;;31.60;65.80;;;;;;2586790;54;20097;31
2023/07/19 12:55:41;;;;;;;4.57;1.80;;;31.60;65.20;;;;;;2586683;54;21643;31
2023/07/19 12:58:19;;;;;;;3.90;1.70;;;31.60;64.30;;;;;;2586566;54;20810;31
2023/07/19 13:00:55;;;;;;;3.03;1.55;;;31.60;65.30;;;;;;2586538;54;20022;31
2023/07/19 13:03:34;;;;;;;3.70;1.90;;;31.70;64.70;;;;;;2586688;54;20022;31
2023/07/19 13:06:11;;;;;;;10.93;2.30;;;31.70;63.80;;;;;;2605293;46;20862;31
2023/07/19 13:08:46;;;;;;;6.50;1.60;;;31.70;63.80;;;;;;2605116;46;20758;31
2023/07/19 13:11:22;;;;;;;5.80;1.90;;;31.70;64.40;;;;;;2586620;54;20090;31
2023/07/19 13:14:03;;;;;;;6.17;1.67;;;31.70;64.50;;;;;;2586788;54;20882;31
2023/07/19 13:16:36;;;;;;;3.03;1.45;;;31.70;63.30;;;;;;2586472;54;20026;31
2023/07/19 13:19:13;;;;;;;5.45;1.63;;;31.70;63.60;;;;;;2586500;54;20036;31
2023/07/19 13:21:48;;;;;;;4.85;1.45;;;31.80;63.60;;;;;;2586477;54;20058;31
2023/07/19 13:24:23;;;;;;;1.87;1.10;;;31.70;63.90;;;;;;2684536;39;20409;31
2023/07/19 13:26:58;;;;;;;3.90;1.40;;;31.70;64.40;;;;;;2586677;54;20158;31
2023/07/19 13:29:35;;;;;;;6.80;1.80;;;31.50;62.70;;;;;;2585634;54;20940;31
2023/07/19 13:32:12;;;;;;;4.10;1.60;;;31.30;63.50;;;;;;2684418;39;21635;31
2023/07/19 13:34:53;;;;;;;2.30;1.55;;;31.20;64.60;;;;;;2684380;39;21594;31
2023/07/19 13:37:34;;;;;;;4.40;1.48;;;31.30;63.50;;;;;;2586321;54;20851;31
2023/07/19 13:40:16;;;;;;;2.42;1.42;;;31.30;63.00;;;;;;2586344;54;19942;31
2023/07/19 13:42:50;;;;;;;5.30;1.35;;;31.30;63.10;;;;;;2585806;54;20894;31
2023/07/19 13:45:28;;;;;;;3.47;1.42;;;31.40;62.80;;;;;;2586267;54;20874;31
2023/07/19 13:48:02;;;;;;;2.90;1.00;;;31.50;61.80;;;;;;2586689;54;20560;31
2023/07/19 13:50:38;;;;;;;3.03;1.40;;;31.50;60.70;;;;;;2585923;54;20030;31
2023/07/19 13:53:14;;;;;;;3.73;1.37;;;31.30;61.00;;;;;;2586304;54;20045;31